Time;durP1;ratioP1;P1;durP2;ratioP2;P2;SDS_P1;SDS_P2;PMS_P1;PMS_P2;Temp;Humidity;BMP_temperature;BMP_pressure;BME280_temperature;BME280_humidity;BME280_pressure;Samples;Min_cycle;Max_cycle;Signal;HPM_P1;HPM_P2
2022/06/06 00:00:43;;;;;;;12.77;2.72;;;20.70;90.00;;;;;;5045359;28;20399;-62
2022/06/06 00:03:08;;;;;;;4.80;2.30;;;20.70;90.00;;;;;;5044879;28;20025;-61
2022/06/06 00:05:34;;;;;;;8.73;1.98;;;20.70;90.00;;;;;;5045226;28;20033;-62
2022/06/06 00:07:59;;;;;;;9.52;2.75;;;20.70;90.00;;;;;;5027438;28;20103;-61
2022/06/06 00:10:25;;;;;;;17.30;2.72;;;20.70;90.00;;;;;;5026919;28;20036;-61
2022/06/06 00:12:51;;;;;;;11.32;3.05;;;20.70;90.10;;;;;;5026150;28;20072;-62
2022/06/06 00:15:16;;;;;;;10.52;2.50;;;20.70;90.10;;;;;;5025576;28;20029;-62
2022/06/06 00:17:42;;;;;;;8.82;2.28;;;20.60;90.10;;;;;;5045375;28;20040;-62
2022/06/06 00:20:08;;;;;;;10.35;2.65;;;20.60;90.10;;;;;;5044901;28;20126;-62
2022/06/06 00:22:33;;;;;;;8.38;2.80;;;20.60;90.20;;;;;;5027663;28;20108;-61
2022/06/06 00:24:59;;;;;;;9.80;2.97;;;20.60;90.20;;;;;;5043713;28;20428;-62
2022/06/06 00:27:25;;;;;;;7.97;3.25;;;20.60;90.20;;;;;;5044166;28;20052;-61
2022/06/06 00:29:51;;;;;;;9.45;2.70;;;20.50;90.10;;;;;;5045849;28;20031;-60
2022/06/06 00:35:03;;;;;;;8.70;2.80;;;20.50;90.20;;;;;;5045890;28;20070;-61
2022/06/06 00:37:30;;;;;;;11.38;3.00;;;20.50;90.20;;;;;;5043246;28;20515;-62
2022/06/06 00:39:56;;;;;;;14.75;2.65;;;20.50;90.20;;;;;;5003055;28;20025;-62
2022/06/06 00:42:28;;;;;;;10.20;2.67;;;20.50;90.20;;;;;;5043951;28;20046;-62
2022/06/06 00:45:23;;;;;;;11.15;3.17;;;20.40;90.20;;;;;;5026754;28;20074;-62
2022/06/06 00:48:02;;;;;;;10.93;2.88;;;20.40;90.30;;;;;;5044378;28;20434;-62
2022/06/06 00:50:35;;;;;;;8.20;3.13;;;20.40;90.30;;;;;;5025730;28;20714;-61
2022/06/06 00:53:01;;;;;;;8.20;2.80;;;20.40;90.30;;;;;;5023615;28;20036;-62
2022/06/06 00:55:29;;;;;;;6.22;2.47;;;20.40;90.30;;;;;;5009701;28;20025;-61
2022/06/06 00:58:00;;;;;;;10.65;2.33;;;20.40;90.30;;;;;;5027032;28;20029;-60
2022/06/06 01:00:26;;;;;;;9.43;2.47;;;20.30;90.30;;;;;;5026847;28;20025;-62
2022/06/06 01:02:53;;;;;;;9.60;2.30;;;20.30;90.30;;;;;;5025529;28;20198;-62
2022/06/06 01:05:20;;;;;;;7.45;2.15;;;20.30;90.20;;;;;;5024196;28;20350;-62
2022/06/06 01:07:46;;;;;;;6.80;2.40;;;20.30;90.20;;;;;;5024284;28;20047;-61
2022/06/06 01:10:12;;;;;;;9.55;2.40;;;20.30;90.30;;;;;;5024283;28;20033;-61
2022/06/06 01:12:38;;;;;;;8.57;2.33;;;20.30;90.20;;;;;;5025879;28;20104;-62
2022/06/06 01:15:07;;;;;;;8.93;2.35;;;20.30;90.30;;;;;;5025057;28;20499;-61
2022/06/06 01:17:39;;;;;;;8.00;2.47;;;20.30;90.30;;;;;;5024368;28;20037;-61
2022/06/06 01:20:16;;;;;;;4.75;1.90;;;20.30;90.20;;;;;;5024801;28;20029;-61
2022/06/06 01:23:18;;;;;;;8.73;1.95;;;20.20;90.30;;;;;;5025958;28;20044;-62
2022/06/06 01:25:44;;;;;;;3.60;1.85;;;20.20;90.30;;;;;;5024127;28;20021;-61
2022/06/06 01:28:38;;;;;;;9.23;2.03;;;20.20;90.40;;;;;;5041802;28;20463;-61
2022/06/06 01:31:07;;;;;;;3.90;2.20;;;20.10;90.40;;;;;;5024195;28;20036;-62
2022/06/06 01:33:51;;;;;;;8.93;2.08;;;20.10;90.40;;;;;;5024537;28;20029;-62
2022/06/06 01:36:16;;;;;;;2.95;1.63;;;20.10;90.40;;;;;;5025060;28;20043;-62
2022/06/06 01:38:42;;;;;;;6.25;2.30;;;20.10;90.40;;;;;;5040564;28;20029;-61
2022/06/06 01:41:08;;;;;;;7.57;2.20;;;20.10;90.40;;;;;;5025593;28;20029;-62
2022/06/06 01:43:48;;;;;;;3.53;2.00;;;20.10;90.40;;;;;;5023649;28;20025;-61
2022/06/06 01:46:17;;;;;;;3.28;1.70;;;20.00;90.40;;;;;;5024781;28;20056;-62
2022/06/06 01:48:42;;;;;;;8.02;2.10;;;20.00;90.40;;;;;;5008126;28;21002;-61
2022/06/06 01:51:14;;;;;;;8.13;1.92;;;20.00;90.40;;;;;;5025539;28;20029;-63
2022/06/06 01:53:40;;;;;;;3.67;1.80;;;20.00;90.40;;;;;;5007600;28;20045;-63
2022/06/06 01:56:09;;;;;;;6.68;1.88;;;20.00;90.40;;;;;;5041127;28;20072;-61
2022/06/06 01:58:35;;;;;;;6.90;1.92;;;19.90;90.40;;;;;;5023320;28;20033;-61
2022/06/06 02:01:02;;;;;;;4.05;1.55;;;19.90;90.40;;;;;;5025876;28;20428;-62
2022/06/06 02:03:28;;;;;;;3.83;1.70;;;19.90;90.40;;;;;;5024517;28;20017;-62
2022/06/06 02:05:54;;;;;;;3.25;1.70;;;19.90;90.40;;;;;;5024349;28;20094;-61
2022/06/06 02:08:19;;;;;;;6.80;1.58;;;19.90;90.40;;;;;;5023056;28;20154;-62
2022/06/06 02:10:45;;;;;;;5.05;1.58;;;19.90;90.40;;;;;;5022028;28;20128;-62
2022/06/06 02:13:10;;;;;;;7.88;1.83;;;19.90;90.40;;;;;;5025776;28;20167;-63
2022/06/06 02:15:36;;;;;;;3.25;1.65;;;19.90;90.40;;;;;;5024068;28;20067;-61
2022/06/06 02:18:01;;;;;;;2.10;1.45;;;19.90;90.50;;;;;;5024250;28;20091;-62
2022/06/06 02:20:28;;;;;;;3.25;1.67;;;19.90;90.50;;;;;;5043127;28;20056;-62
2022/06/06 02:22:54;;;;;;;4.78;1.95;;;19.90;90.50;;;;;;5023375;28;20148;-62
2022/06/06 02:25:20;;;;;;;3.30;1.80;;;19.80;90.50;;;;;;5022493;28;20107;-62
2022/06/06 02:27:45;;;;;;;3.60;1.85;;;19.80;90.50;;;;;;5025053;28;20045;-61
2022/06/06 02:30:14;;;;;;;2.28;1.70;;;19.80;90.50;;;;;;5039813;28;20037;-62
2022/06/06 02:32:40;;;;;;;2.67;1.73;;;19.80;90.50;;;;;;5025305;28;20032;-61
2022/06/06 02:35:08;;;;;;;2.55;1.67;;;19.80;90.50;;;;;;5022557;28;20033;-62
2022/06/06 02:37:34;;;;;;;3.40;1.30;;;19.80;90.50;;;;;;5006860;28;20045;-62
2022/06/06 02:39:59;;;;;;;3.50;1.77;;;19.80;90.40;;;;;;5042422;28;20508;-63
2022/06/06 02:42:25;;;;;;;3.78;1.45;;;19.80;90.40;;;;;;5043115;28;20029;-62
2022/06/06 02:44:51;;;;;;;1.77;1.33;;;19.70;90.40;;;;;;5043197;28;20033;-61
2022/06/06 02:47:16;;;;;;;2.40;1.40;;;19.70;90.40;;;;;;5041951;28;20096;-62
2022/06/06 02:49:42;;;;;;;3.28;1.50;;;19.70;90.40;;;;;;5022450;28;20400;-60
2022/06/06 02:52:07;;;;;;;1.88;1.30;;;19.70;90.40;;;;;;5041714;28;20399;-61
2022/06/06 02:54:33;;;;;;;2.80;1.42;;;19.70;90.50;;;;;;5040882;28;20446;-62
2022/06/06 02:56:59;;;;;;;7.25;2.00;;;19.70;90.50;;;;;;5024428;28;20093;-62
2022/06/06 02:59:25;;;;;;;3.42;1.80;;;19.60;90.50;;;;;;5023591;28;20047;-62
2022/06/06 03:01:51;;;;;;;4.13;1.67;;;19.60;90.60;;;;;;5024479;28;20450;-62
2022/06/06 03:04:17;;;;;;;5.05;1.65;;;19.60;90.50;;;;;;5039710;28;20241;-62
2022/06/06 03:07:02;;;;;;;2.90;1.55;;;19.60;90.50;;;;;;5027452;28;20029;-62
2022/06/06 03:09:50;;;;;;;3.45;1.60;;;19.60;90.50;;;;;;5029900;28;20029;-62
2022/06/06 03:12:28;;;;;;;1.95;1.60;;;19.60;90.50;;;;;;5029526;28;20029;-62
2022/06/06 03:15:31;;;;;;;2.00;1.20;;;19.50;90.50;;;;;;5027031;28;20033;-62
2022/06/06 03:22:02;;;;;;;6.10;1.33;;;19.50;90.60;;;;;;5033945;28;20175;-62
2022/06/06 03:24:46;;;;;;;1.58;1.23;;;19.50;90.50;;;;;;4948502;28;20089;-62
2022/06/06 03:27:18;;;;;;;9.23;1.50;;;19.50;90.50;;;;;;5044090;28;20537;-61
2022/06/06 03:30:05;;;;;;;2.67;1.20;;;19.40;90.60;;;;;;5043323;28;20078;-61
2022/06/06 03:32:58;;;;;;;3.53;1.25;;;19.40;90.50;;;;;;5030371;28;20083;-61
2022/06/06 03:35:54;;;;;;;3.25;1.27;;;19.40;90.50;;;;;;5026823;28;20033;-62
2022/06/06 03:38:54;;;;;;;1.42;1.20;;;19.40;90.60;;;;;;5031051;28;20040;-61
2022/06/06 03:41:26;;;;;;;1.83;1.38;;;19.40;90.50;;;;;;5011563;28;20056;-61
2022/06/06 03:44:14;;;;;;;2.22;1.35;;;19.40;90.50;;;;;;5025873;28;20048;-62
2022/06/06 03:47:02;;;;;;;3.13;1.30;;;19.40;90.60;;;;;;5028390;28;20021;-62
2022/06/06 03:49:32;;;;;;;2.90;1.50;;;19.40;90.60;;;;;;5027824;28;20543;-62
2022/06/06 03:52:24;;;;;;;6.45;1.52;;;19.30;90.60;;;;;;5027750;28;20155;-61
2022/06/06 03:54:55;;;;;;;3.97;1.40;;;19.40;90.70;;;;;;5027066;28;20385;-62
2022/06/06 03:57:23;;;;;;;2.65;1.30;;;19.30;90.70;;;;;;5028409;28;20420;-62
2022/06/06 03:59:54;;;;;;;1.85;1.13;;;19.30;90.70;;;;;;5028351;28;20392;-62
2022/06/06 04:02:22;;;;;;;4.07;1.40;;;19.30;90.70;;;;;;5028416;28;20035;-62
2022/06/06 04:04:47;;;;;;;5.30;1.55;;;19.30;90.70;;;;;;5024934;28;20036;-61
2022/06/06 04:07:13;;;;;;;2.83;1.25;;;19.30;90.70;;;;;;5025786;28;20585;-62
2022/06/06 04:09:39;;;;;;;3.63;1.13;;;19.30;90.70;;;;;;5041760;28;20024;-62
2022/06/06 04:12:26;;;;;;;3.13;1.10;;;19.20;90.70;;;;;;5028811;28;20547;-62
2022/06/06 04:14:55;;;;;;;2.15;1.50;;;19.20;90.70;;;;;;5044893;28;20560;-62
2022/06/06 04:17:43;;;;;;;7.05;1.33;;;19.20;90.70;;;;;;5044293;28;20362;-61
2022/06/06 04:20:16;;;;;;;2.28;1.40;;;19.20;90.70;;;;;;5026815;28;20033;-62
2022/06/06 04:23:04;;;;;;;3.15;1.40;;;19.20;90.70;;;;;;5026306;28;20037;-61
2022/06/06 04:25:37;;;;;;;1.88;1.17;;;19.20;90.70;;;;;;5029945;28;20025;-62
2022/06/06 04:28:07;;;;;;;4.18;1.08;;;19.20;90.70;;;;;;5045577;28;20029;-62
2022/06/06 04:30:51;;;;;;;3.55;1.35;;;19.20;90.70;;;;;;5026794;28;20040;-62
2022/06/06 04:33:25;;;;;;;2.38;1.30;;;19.20;90.60;;;;;;5009042;28;20094;-61
2022/06/06 04:36:02;;;;;;;1.77;1.17;;;19.20;90.60;;;;;;5026445;28;20040;-61
2022/06/06 04:38:39;;;;;;;3.10;1.13;;;19.20;90.60;;;;;;5027837;28;20057;-62
2022/06/06 04:41:33;;;;;;;2.85;1.30;;;19.20;90.60;;;;;;5027527;28;20383;-61
2022/06/06 04:44:01;;;;;;;3.55;1.20;;;19.20;90.60;;;;;;5023622;28;20110;-62
2022/06/06 04:46:45;;;;;;;2.03;1.05;;;19.20;90.60;;;;;;5043292;28;20029;-62
2022/06/06 04:49:11;;;;;;;1.73;1.05;;;19.20;90.60;;;;;;5043563;28;20119;-61
2022/06/06 04:51:38;;;;;;;1.27;1.15;;;19.20;90.60;;;;;;5025596;28;20124;-61
2022/06/06 04:54:03;;;;;;;4.43;1.40;;;19.20;90.60;;;;;;5010658;28;20057;-61
2022/06/06 04:56:29;;;;;;;2.75;1.38;;;19.20;90.60;;;;;;5026885;28;20511;-63
2022/06/06 04:58:57;;;;;;;2.30;1.20;;;19.20;90.60;;;;;;5024575;28;20354;-64
2022/06/06 05:01:23;;;;;;;4.68;1.27;;;19.20;90.60;;;;;;5043765;28;20017;-62
2022/06/06 05:03:49;;;;;;;4.32;1.20;;;19.20;90.60;;;;;;5024908;28;20421;-63
2022/06/06 05:06:29;;;;;;;2.53;1.45;;;19.20;90.50;;;;;;5026910;28;20047;-62
2022/06/06 05:09:11;;;;;;;3.33;1.27;;;19.30;90.60;;;;;;5041821;28;20029;-62
2022/06/06 05:11:50;;;;;;;2.10;1.20;;;19.30;90.50;;;;;;5024492;28;20021;-62
2022/06/06 05:14:22;;;;;;;2.35;1.38;;;19.30;90.50;;;;;;5043133;28;20057;-61
2022/06/06 05:17:12;;;;;;;2.55;1.25;;;19.30;90.50;;;;;;5025113;28;20028;-61
2022/06/06 05:20:07;;;;;;;1.50;1.30;;;19.30;90.50;;;;;;5026206;28;20043;-62
2022/06/06 05:22:37;;;;;;;1.73;1.30;;;19.30;90.40;;;;;;5027930;28;20282;-61
2022/06/06 05:25:21;;;;;;;2.25;1.15;;;19.30;90.40;;;;;;5024547;28;20127;-64
2022/06/06 05:28:17;;;;;;;2.38;1.20;;;19.30;90.40;;;;;;5024236;28;20102;-65
2022/06/06 05:30:45;;;;;;;3.08;1.35;;;19.30;90.40;;;;;;5044162;28;20036;-64
2022/06/06 05:33:33;;;;;;;1.40;1.20;;;19.30;90.40;;;;;;5025767;28;20051;-62
2022/06/06 05:36:26;;;;;;;2.28;1.20;;;19.30;90.40;;;;;;5024587;28;20056;-63
2022/06/06 05:39:03;;;;;;;3.05;1.30;;;19.40;90.40;;;;;;5024107;28;20041;-63
2022/06/06 05:41:44;;;;;;;3.40;1.38;;;19.40;90.40;;;;;;5025958;28;20043;-62
2022/06/06 05:44:20;;;;;;;1.63;1.20;;;19.40;90.40;;;;;;5025524;28;20067;-61
2022/06/06 05:47:08;;;;;;;1.98;1.20;;;19.40;90.40;;;;;;5028381;28;20037;-61
2022/06/06 05:49:47;;;;;;;2.42;1.10;;;19.40;90.40;;;;;;5027091;28;20029;-62
2022/06/06 05:52:19;;;;;;;4.00;1.50;;;19.40;90.40;;;;;;5025132;28;20500;-63
2022/06/06 05:55:11;;;;;;;1.48;1.20;;;19.40;90.40;;;;;;5024671;28;20025;-61
2022/06/06 05:58:03;;;;;;;2.22;1.50;;;19.40;90.40;;;;;;5009115;28;20029;-63
2022/06/06 06:00:44;;;;;;;3.10;1.23;;;19.40;90.30;;;;;;5029254;28;20075;-62
2022/06/06 06:03:39;;;;;;;2.90;1.52;;;19.40;90.30;;;;;;5024322;28;20064;-62
2022/06/06 06:06:28;;;;;;;2.35;1.35;;;19.40;90.60;;;;;;5025969;28;20056;-61
2022/06/06 06:09:23;;;;;;;3.05;1.52;;;19.40;90.80;;;;;;5022979;28;20017;-61
2022/06/06 06:11:58;;;;;;;2.85;1.40;;;19.40;90.90;;;;;;5024740;28;20039;-62
2022/06/06 06:14:36;;;;;;;2.95;1.60;;;19.40;90.90;;;;;;5042526;28;20716;-62
2022/06/06 06:17:02;;;;;;;1.42;1.30;;;19.40;90.90;;;;;;5039793;28;20119;-62
2022/06/06 06:19:44;;;;;;;3.70;1.73;;;19.40;90.80;;;;;;5006825;28;20499;-61
2022/06/06 06:22:10;;;;;;;2.80;1.70;;;19.40;91.00;;;;;;5025229;28;20073;-62
2022/06/06 06:24:39;;;;;;;1.77;1.48;;;19.50;91.00;;;;;;5006722;28;20037;-62
2022/06/06 06:27:05;;;;;;;3.40;1.80;;;19.40;91.00;;;;;;5007089;28;20032;-62
2022/06/06 06:29:30;;;;;;;2.47;1.40;;;19.40;90.90;;;;;;5023164;28;20028;-62
2022/06/06 06:32:02;;;;;;;3.90;1.70;;;19.40;91.00;;;;;;5023966;28;20520;-61
2022/06/06 06:34:36;;;;;;;3.85;1.70;;;19.40;91.00;;;;;;5023626;28;20114;-62
2022/06/06 06:37:29;;;;;;;2.85;1.52;;;19.50;90.90;;;;;;5021492;28;20416;-61
2022/06/06 06:40:41;;;;;;;3.42;1.95;;;19.50;91.00;;;;;;5020460;28;20136;-61
2022/06/06 06:43:20;;;;;;;3.67;2.08;;;19.50;91.10;;;;;;4965540;28;20062;-61
2022/06/06 06:45:54;;;;;;;2.65;1.83;;;19.50;91.10;;;;;;4953813;28;20018;-62
2022/06/06 06:48:36;;;;;;;2.13;1.92;;;19.50;91.20;;;;;;4992548;28;20484;-61
2022/06/06 06:51:09;;;;;;;7.65;2.20;;;19.50;91.10;;;;;;5037662;28;20498;-61
2022/06/06 06:53:54;;;;;;;2.67;2.13;;;19.50;91.00;;;;;;5004593;28;20123;-63
2022/06/06 06:56:50;;;;;;;2.33;1.80;;;19.50;91.10;;;;;;5020408;28;20033;-61
2022/06/06 06:59:37;;;;;;;2.33;1.80;;;19.50;91.10;;;;;;5020420;28;20044;-61
2022/06/06 07:08:43;;;;;;;2.35;1.73;;;19.50;91.20;;;;;;5018227;28;20033;-61
2022/06/06 07:11:14;;;;;;;2.10;1.90;;;19.50;91.20;;;;;;5020070;28;20033;-64
2022/06/06 07:14:03;;;;;;;2.95;2.08;;;19.60;91.10;;;;;;5022756;28;20032;-63
2022/06/06 07:16:31;;;;;;;2.72;2.00;;;19.60;91.10;;;;;;5020923;28;20372;-63
2022/06/06 07:19:03;;;;;;;3.03;2.08;;;19.60;91.00;;;;;;5022738;28;20050;-61
2022/06/06 07:21:30;;;;;;;3.55;2.15;;;19.60;91.00;;;;;;5020465;28;20055;-61
2022/06/06 07:23:55;;;;;;;2.42;1.95;;;19.70;91.00;;;;;;5018913;28;20033;-61
2022/06/06 07:26:21;;;;;;;4.68;1.98;;;19.70;91.00;;;;;;5022179;28;20489;-61
2022/06/06 07:28:46;;;;;;;4.32;2.33;;;19.70;90.80;;;;;;5021798;28;20300;-62
2022/06/06 07:31:31;;;;;;;2.75;2.22;;;19.70;90.80;;;;;;5021346;28;20172;-61
2022/06/06 07:34:18;;;;;;;3.60;2.25;;;19.80;90.80;;;;;;5019374;28;20090;-62
2022/06/06 07:37:00;;;;;;;2.65;2.13;;;19.80;90.70;;;;;;5034144;28;20060;-61
2022/06/06 07:39:37;;;;;;;3.05;2.15;;;19.80;90.70;;;;;;5023674;28;20033;-62
2022/06/06 07:42:40;;;;;;;3.10;1.90;;;19.80;90.60;;;;;;5042778;28;20029;-61
2022/06/06 07:45:26;;;;;;;2.38;1.90;;;19.90;90.50;;;;;;5008142;28;20122;-61
2022/06/06 07:48:00;;;;;;;4.18;2.30;;;19.90;90.40;;;;;;5021672;28;20472;-61
2022/06/06 07:50:31;;;;;;;2.83;2.30;;;20.00;90.30;;;;;;5020969;28;20045;-63
2022/06/06 07:53:08;;;;;;;3.85;2.35;;;20.00;90.20;;;;;;5027022;28;20131;-64
2022/06/06 07:55:48;;;;;;;4.00;2.25;;;20.00;90.20;;;;;;5026352;28;20040;-64
2022/06/06 07:58:21;;;;;;;4.80;2.15;;;20.00;90.10;;;;;;5026559;28;20039;-62
2022/06/06 08:00:52;;;;;;;2.80;2.25;;;20.00;90.10;;;;;;5025330;28;20399;-61
2022/06/06 08:03:23;;;;;;;4.35;2.65;;;20.00;90.00;;;;;;5024819;28;20036;-62
2022/06/06 08:06:16;;;;;;;4.28;2.30;;;20.00;89.80;;;;;;5025177;28;20137;-62
2022/06/06 08:08:57;;;;;;;5.57;2.85;;;20.00;89.80;;;;;;5026132;28;20560;-63
2022/06/06 08:11:37;;;;;;;4.82;2.70;;;20.10;90.00;;;;;;5026114;28;20033;-61
2022/06/06 08:14:31;;;;;;;12.43;3.47;;;20.10;90.00;;;;;;5024525;28;20052;-62
2022/06/06 08:17:22;;;;;;;11.93;2.95;;;20.00;89.80;;;;;;5016855;28;20442;-61
2022/06/06 08:20:09;;;;;;;12.80;3.33;;;20.00;89.60;;;;;;5023861;28;20045;-62
2022/06/06 08:22:36;;;;;;;12.40;3.05;;;20.00;89.50;;;;;;5029120;28;20095;-61
2022/06/06 08:25:03;;;;;;;17.27;3.88;;;20.10;89.80;;;;;;5010552;28;20043;-61
2022/06/06 08:27:29;;;;;;;15.40;3.58;;;20.10;90.00;;;;;;5023817;28;20037;-61
2022/06/06 08:29:55;;;;;;;22.90;4.20;;;20.10;90.00;;;;;;5029724;28;20044;-61
2022/06/06 08:32:21;;;;;;;9.35;3.97;;;20.10;90.00;;;;;;5044390;28;20362;-62
2022/06/06 08:34:48;;;;;;;46.67;6.65;;;20.20;89.90;;;;;;5026798;28;20087;-61
2022/06/06 08:37:19;;;;;;;20.63;5.38;;;20.20;90.00;;;;;;5026369;28;20041;-61
2022/06/06 08:39:54;;;;;;;17.83;4.50;;;20.20;90.00;;;;;;5040667;28;20037;-61
2022/06/06 08:42:39;;;;;;;23.60;4.13;;;20.20;89.90;;;;;;5025707;28;20820;-61
2022/06/06 08:45:29;;;;;;;30.40;5.38;;;20.30;90.00;;;;;;5024838;28;20059;-62
2022/06/06 08:48:11;;;;;;;23.95;4.93;;;20.30;90.00;;;;;;5009675;28;20086;-61
2022/06/06 08:51:00;;;;;;;43.63;8.00;;;20.30;90.00;;;;;;5024218;28;20089;-61
2022/06/06 08:53:50;;;;;;;39.03;7.50;;;20.40;90.00;;;;;;5041404;28;20033;-62
2022/06/06 08:56:20;;;;;;;79.57;9.43;;;20.30;89.40;;;;;;5021704;28;20025;-62
2022/06/06 08:58:54;;;;;;;79.82;10.02;;;20.50;89.70;;;;;;5022912;28;20131;-63
2022/06/06 09:01:35;;;;;;;47.03;7.22;;;20.50;89.70;;;;;;5042049;28;20112;-62
2022/06/06 09:04:06;;;;;;;39.10;7.70;;;20.60;89.70;;;;;;5023646;28;20085;-61
2022/06/06 09:06:59;;;;;;;58.97;8.20;;;20.60;89.50;;;;;;5022815;28;20113;-62
2022/06/06 09:09:37;;;;;;;46.83;6.85;;;20.70;89.50;;;;;;5039282;28;20446;-61
2022/06/06 09:12:20;;;;;;;49.83;7.82;;;20.60;89.10;;;;;;5038886;28;20533;-61
2022/06/06 09:15:21;;;;;;;41.30;6.70;;;20.70;88.90;;;;;;5041936;28;20048;-61
2022/06/06 09:17:55;;;;;;;304.67;35.60;;;20.70;88.80;;;;;;4971286;28;20038;-61
2022/06/06 09:20:40;;;;;;;109.22;13.25;;;20.80;88.80;;;;;;5028023;28;20652;-61
2022/06/06 09:23:35;;;;;;;94.35;11.55;;;20.80;88.80;;;;;;5023853;28;20423;-61
2022/06/06 09:26:07;;;;;;;82.85;12.45;;;20.80;88.80;;;;;;5008688;28;20029;-61
2022/06/06 09:28:56;;;;;;;69.18;9.90;;;20.90;88.60;;;;;;5023128;28;20074;-61
2022/06/06 09:31:31;;;;;;;91.28;12.32;;;20.90;88.50;;;;;;5020550;28;20041;-61
2022/06/06 09:34:34;;;;;;;79.28;11.80;;;21.00;88.40;;;;;;5039815;28;20053;-61
2022/06/06 09:37:11;;;;;;;63.10;11.07;;;21.00;88.00;;;;;;5035487;28;20041;-61
2022/06/06 09:39:54;;;;;;;133.57;15.55;;;21.10;87.40;;;;;;5019786;28;20032;-62
2022/06/06 09:42:47;;;;;;;80.25;11.13;;;21.20;88.00;;;;;;5003726;28;20444;-61
2022/06/06 09:45:30;;;;;;;81.55;11.18;;;21.20;87.30;;;;;;5020117;28;20033;-61
2022/06/06 09:48:41;;;;;;;94.20;12.93;;;21.20;86.90;;;;;;4988456;28;20037;-61
2022/06/06 09:51:22;;;;;;;110.65;14.63;;;21.30;86.90;;;;;;5022625;28;20469;-62
2022/06/06 10:00:27;;;;;;;102.35;12.95;;;21.40;86.20;;;;;;5023135;28;20374;-61
2022/06/06 10:03:05;;;;;;;109.63;13.52;;;21.40;85.90;;;;;;5005468;28;20233;-61
2022/06/06 10:05:42;;;;;;;108.20;14.98;;;21.50;85.60;;;;;;5041273;28;20059;-61
2022/06/06 10:08:43;;;;;;;74.32;10.13;;;21.50;85.40;;;;;;5023743;28;20044;-61
2022/06/06 10:11:16;;;;;;;195.15;23.23;;;21.50;85.00;;;;;;5024402;28;20047;-62
2022/06/06 10:14:01;;;;;;;229.18;27.73;;;21.50;85.00;;;;;;5013912;28;20041;-61
2022/06/06 10:17:03;;;;;;;94.68;13.52;;;21.50;84.70;;;;;;5015232;28;20036;-61
2022/06/06 10:19:49;;;;;;;90.90;11.73;;;21.50;84.50;;;;;;5023337;28;20033;-61
2022/06/06 10:22:32;;;;;;;74.10;10.00;;;21.50;84.30;;;;;;5041025;28;20465;-61
2022/06/06 10:25:03;;;;;;;96.50;10.27;;;21.60;84.10;;;;;;5020032;28;20056;-62
2022/06/06 10:27:47;;;;;;;53.50;7.88;;;21.60;84.00;;;;;;5019676;28;20481;-61
2022/06/06 10:30:18;;;;;;;65.65;10.45;;;21.70;83.90;;;;;;5037494;28;20036;-62
2022/06/06 10:33:18;;;;;;;85.88;11.98;;;21.70;83.90;;;;;;5006834;28;20038;-61
2022/06/06 10:36:12;;;;;;;82.57;11.85;;;21.80;83.80;;;;;;5019134;28;20053;-61
2022/06/06 10:38:47;;;;;;;65.63;8.63;;;21.80;84.50;;;;;;5035913;28;20088;-61
2022/06/06 10:41:19;;;;;;;138.75;18.55;;;21.90;83.20;;;;;;5038488;28;20052;-61
2022/06/06 10:43:58;;;;;;;141.00;17.02;;;21.90;83.00;;;;;;5020410;28;20086;-61
2022/06/06 10:46:25;;;;;;;97.22;13.07;;;22.00;82.70;;;;;;5021883;28;20104;-61
2022/06/06 10:49:17;;;;;;;49.67;8.10;;;22.00;82.70;;;;;;5040319;28;20112;-61
2022/06/06 10:52:01;;;;;;;56.78;8.07;;;22.00;83.10;;;;;;5018896;28;20151;-61
2022/06/06 10:54:38;;;;;;;79.65;11.73;;;22.00;82.40;;;;;;5017426;28;20037;-62
2022/06/06 10:57:52;;;;;;;87.10;13.02;;;22.00;82.40;;;;;;5013854;28;20035;-62
2022/06/06 11:00:58;;;;;;;86.75;11.57;;;22.10;82.10;;;;;;4957495;28;20043;-61
2022/06/06 11:03:35;;;;;;;74.95;10.77;;;22.10;82.00;;;;;;4938009;28;20046;-61
2022/06/06 11:06:31;;;;;;;88.07;11.82;;;22.10;82.10;;;;;;5022758;28;20076;-61
2022/06/06 11:09:23;;;;;;;62.03;8.65;;;22.20;81.70;;;;;;5019318;28;20078;-61
2022/06/06 11:12:11;;;;;;;60.63;9.43;;;22.30;81.30;;;;;;5006447;28;20040;-62
2022/06/06 11:14:40;;;;;;;90.05;10.38;;;22.40;80.80;;;;;;5037473;28;20131;-61
2022/06/06 11:17:29;;;;;;;87.05;11.05;;;22.50;80.60;;;;;;5018541;28;20043;-62
2022/06/06 11:20:25;;;;;;;81.85;11.18;;;22.60;80.40;;;;;;5018683;28;20140;-62
2022/06/06 11:23:12;;;;;;;88.60;10.68;;;22.70;80.00;;;;;;5020930;28;20071;-61
2022/06/06 11:25:51;;;;;;;53.95;8.80;;;22.70;79.10;;;;;;5035529;28;20117;-61
2022/06/06 11:28:29;;;;;;;73.53;10.23;;;22.80;79.10;;;;;;5018863;28;20025;-61
2022/06/06 11:31:11;;;;;;;81.32;12.27;;;22.80;78.80;;;;;;5018477;28;20065;-61
2022/06/06 11:33:46;;;;;;;75.53;10.25;;;22.70;78.70;;;;;;4999578;28;20037;-62
2022/06/06 11:36:15;;;;;;;113.78;14.82;;;22.80;78.70;;;;;;5045918;28;20156;-61
2022/06/06 11:39:07;;;;;;;81.15;10.77;;;22.80;79.10;;;;;;5044689;28;20033;-62
2022/06/06 11:41:51;;;;;;;92.05;11.32;;;22.80;78.40;;;;;;5023398;28;20029;-61
2022/06/06 11:44:31;;;;;;;186.55;23.13;;;22.90;78.30;;;;;;5041385;28;20060;-62
2022/06/06 11:47:22;;;;;;;71.43;10.10;;;23.00;77.50;;;;;;5045226;28;21002;-62
2022/06/06 11:50:10;;;;;;;59.97;8.80;;;23.10;77.00;;;;;;5044293;28;20052;-61
2022/06/06 11:52:50;;;;;;;89.70;10.13;;;23.20;76.80;;;;;;5044812;28;20025;-61
2022/06/06 11:55:15;;;;;;;77.22;9.90;;;23.30;76.20;;;;;;5042340;28;20036;-64
2022/06/06 11:58:01;;;;;;;69.03;7.78;;;23.40;76.10;;;;;;5041524;28;20065;-61
2022/06/06 12:01:04;;;;;;;68.07;8.10;;;23.50;75.60;;;;;;5044972;28;20120;-62
2022/06/06 12:03:45;;;;;;;86.57;12.05;;;23.60;75.10;;;;;;5028732;28;20824;-62
2022/06/06 12:06:27;;;;;;;62.83;9.00;;;23.70;75.20;;;;;;5026259;28;20036;-62
2022/06/06 12:09:13;;;;;;;75.65;10.25;;;23.70;74.80;;;;;;5009102;28;20365;-62
2022/06/06 12:11:59;;;;;;;88.30;10.10;;;23.80;75.00;;;;;;5029448;28;20036;-62
2022/06/06 12:14:58;;;;;;;89.05;11.65;;;23.90;74.80;;;;;;5026283;28;20078;-62
2022/06/06 12:17:48;;;;;;;80.45;12.02;;;24.10;74.60;;;;;;5010249;28;20096;-61
2022/06/06 12:20:32;;;;;;;99.13;10.88;;;24.20;74.20;;;;;;5028473;28;20017;-62
2022/06/06 12:23:17;;;;;;;108.43;13.10;;;24.20;74.30;;;;;;5023447;28;20040;-62
2022/06/06 12:25:59;;;;;;;90.85;11.90;;;24.40;73.90;;;;;;5025584;28;20546;-62
2022/06/06 12:28:49;;;;;;;148.45;16.45;;;24.40;73.80;;;;;;5023890;28;20041;-61
2022/06/06 12:31:40;;;;;;;86.40;12.95;;;24.40;74.00;;;;;;5006247;28;20032;-61
2022/06/06 12:34:16;;;;;;;86.50;12.77;;;24.50;73.70;;;;;;5020406;28;20064;-62
2022/06/06 12:36:51;;;;;;;73.95;9.02;;;24.50;73.30;;;;;;5006001;28;20549;-61
2022/06/06 12:39:33;;;;;;;56.13;8.18;;;24.50;72.30;;;;;;5024270;28;20220;-62
2022/06/06 12:42:13;;;;;;;69.18;9.50;;;24.50;72.70;;;;;;5006644;28;20465;-61
2022/06/06 12:44:54;;;;;;;49.40;8.50;;;24.50;73.10;;;;;;5022518;28;20059;-62
2022/06/06 12:47:38;;;;;;;72.85;8.25;;;24.50;73.20;;;;;;5020394;28;20053;-62
2022/06/06 12:50:29;;;;;;;77.85;9.90;;;24.50;73.30;;;;;;5019532;28;20473;-61
2022/06/06 12:53:19;;;;;;;137.07;15.48;;;24.60;73.30;;;;;;5024176;28;20414;-62
2022/06/06 12:56:25;;;;;;;84.40;9.55;;;24.70;73.40;;;;;;5030804;28;20302;-62
2022/06/06 12:59:25;;;;;;;76.47;9.00;;;24.70;73.20;;;;;;5043723;28;20475;-61
2022/06/06 13:02:15;;;;;;;62.40;9.48;;;24.80;72.80;;;;;;5017913;28;20967;-62
2022/06/06 13:05:05;;;;;;;53.08;8.15;;;24.90;72.80;;;;;;5040000;28;20065;-63
2022/06/06 13:08:12;;;;;;;58.20;7.88;;;25.00;72.40;;;;;;5008583;28;20052;-61
2022/06/06 13:11:05;;;;;;;69.32;8.65;;;25.10;71.30;;;;;;5009179;28;20029;-61
2022/06/06 13:13:34;;;;;;;63.38;10.18;;;25.10;71.60;;;;;;5043683;28;20105;-62
2022/06/06 13:16:04;;;;;;;56.55;8.23;;;25.10;71.80;;;;;;5037283;28;20040;-62
2022/06/06 13:18:48;;;;;;;64.85;9.27;;;25.10;71.50;;;;;;5021031;28;20083;-61
2022/06/06 13:21:18;;;;;;;57.17;7.78;;;25.10;71.80;;;;;;5022622;28;20021;-62
2022/06/06 13:24:07;;;;;;;56.38;7.95;;;25.10;71.80;;;;;;5009977;28;20025;-61
2022/06/06 13:26:50;;;;;;;67.05;9.00;;;25.10;71.40;;;;;;5024804;28;20025;-61
2022/06/06 13:29:42;;;;;;;55.67;7.93;;;25.10;70.90;;;;;;5025696;28;20113;-64
2022/06/06 13:32:39;;;;;;;68.38;8.38;;;25.20;70.90;;;;;;5013116;28;20075;-64
2022/06/06 13:35:25;;;;;;;71.28;8.57;;;25.30;70.70;;;;;;5038004;28;20153;-62
2022/06/06 13:37:58;;;;;;;89.47;10.85;;;25.30;70.80;;;;;;5022133;28;20055;-62
2022/06/06 13:40:32;;;;;;;90.55;11.40;;;25.40;70.80;;;;;;5002190;28;20741;-61
2022/06/06 13:43:01;;;;;;;82.88;10.45;;;25.50;70.60;;;;;;5017909;28;20052;-61
2022/06/06 13:45:27;;;;;;;66.18;9.43;;;25.50;70.40;;;;;;5033347;28;20108;-61
2022/06/06 13:48:08;;;;;;;51.28;8.20;;;25.60;69.80;;;;;;5037422;28;20563;-61
2022/06/06 13:50:56;;;;;;;89.90;12.85;;;25.60;70.70;;;;;;5021306;28;20072;-61
2022/06/06 13:53:29;;;;;;;102.07;13.30;;;25.60;69.90;;;;;;5004682;28;20029;-61
2022/06/06 13:56:14;;;;;;;82.40;10.32;;;25.70;70.20;;;;;;5015596;28;20426;-61